Axstal, Sweden

7:55 AM CEST on September 20, 2014 (GMT +0200)
Vadstena | Change Station
CLOSE
Current Station
Personal Weather Station
Location: Vadstena, Vadstena
Elevation: 300 ft
Nearby Weather Stations

Elev 300 ft 58.45 °N, 14.90 °E | Updated 1 second ago

Fog
Fog
53.1 °F
Feels Like 53.1 °F
N
0.0
Wind Variable Wind from ENE
Gusts 0.0 mph

Today
High -- | Low -- °F
--% Chance of Precip.
Yesterday
High -- | Low -- °F
Precip. -- in
6:41 AM 7:07 PM
Waning Crescent, 14% visible
Pressure 29.98 in
Visibility 0.2 miles
Clouds
Dew Point 53 °F
Humidity 99%
Rainfall 0.00 in
Snow Depth Not available.
UV Not available.
Pollen Not available.
Air Quality Not available.
Flu Activity Not available.
METAR ESGR 200550Z AUTO 21001KT 0250 R01/0650N R19/0450N FG VV001 07/07 Q1015

More Conditions Fewer Conditions

Pressure 29.98 in
Visibility 0.2 miles
Clouds
Dew Point 53 °F
Humidity 99%
Rainfall 0.00 in
Snow Depth Not available.
UV Not available.
Pollen Not available.
Air Quality Not available.
Flu Activity Not available.
METAR ESGR 200550Z AUTO 21001KT 0250 R01/0650N R19/0450N FG VV001 07/07 Q1015

More Conditions Fewer Conditions

10-Day Weather Forecast

Almanac

Astronomy

Sep. 20, 2014 Rise Set
Actual Time 6:41 AM CEST 7:07 PM CEST
Civil Twilight 6:01 AM CEST 7:47 PM CEST
Nautical Twilight 5:13 AM CEST 8:35 PM CEST
Astronomical Twilight 4:20 AM CEST 9:27 PM CEST
Moon 2:25 AM CEST 5:33 PM CEST
Length of Visible Light 13h 46m
Length of Day
12h 26m
Tomorrow will be 5m 5s shorter.
Waning Crescent, 14% of the Moon is Illuminated
Today
Waning Crescent
Sep 24
New
Oct 1
First Quarter
Oct 8
Full
Oct 15
Last Quarter

Yesterday's Extremes

Country Highs Country Lows

Community

WunderPhotos

Upload Photos

1,754,777 photos uploaded!

WunderBlogs® & News

Nearby

Snow Depth

Not available.

Earthquake Activity

City Distance Mag. Time & Date
No recent earthquake activity has been reported nearby.
Minimum magnitude displayed is 2.5.

Coastal Water Temperatures

Place Temperature
No Stations Reporting

Nearby Weather Stations